sensor_id;sensor_type;location;lat;lon;timestamp;P1;durP1;ratioP1;P2;durP2;ratioP2
22525;SDS011;11429;50.842;4.386;2022-07-23T00:02:05;20.00;;;15.77;;
22525;SDS011;11429;50.842;4.386;2022-07-23T00:04:32;18.40;;;14.73;;
22525;SDS011;11429;50.842;4.386;2022-07-23T00:06:58;20.60;;;16.52;;
22525;SDS011;11429;50.842;4.386;2022-07-23T00:09:23;17.70;;;15.38;;
22525;SDS011;11429;50.842;4.386;2022-07-23T00:11:49;24.02;;;16.65;;
22525;SDS011;11429;50.842;4.386;2022-07-23T00:14:15;19.15;;;16.95;;
22525;SDS011;11429;50.842;4.386;2022-07-23T00:16:40;21.33;;;16.80;;
22525;SDS011;11429;50.842;4.386;2022-07-23T00:19:06;19.92;;;17.25;;
22525;SDS011;11429;50.842;4.386;2022-07-23T00:21:32;19.63;;;17.45;;
22525;SDS011;11429;50.842;4.386;2022-07-23T00:23:57;21.05;;;17.50;;
22525;SDS011;11429;50.842;4.386;2022-07-23T00:26:23;18.88;;;16.92;;
22525;SDS011;11429;50.842;4.386;2022-07-23T00:28:49;22.58;;;18.33;;
22525;SDS011;11429;50.842;4.386;2022-07-23T00:31:14;20.67;;;18.48;;
22525;SDS011;11429;50.842;4.386;2022-07-23T00:33:40;21.85;;;18.60;;
22525;SDS011;11429;50.842;4.386;2022-07-23T00:36:06;20.50;;;18.27;;
22525;SDS011;11429;50.842;4.386;2022-07-23T00:38:32;23.08;;;18.35;;
22525;SDS011;11429;50.842;4.386;2022-07-23T00:40:58;20.92;;;18.02;;
22525;SDS011;11429;50.842;4.386;2022-07-23T00:43:23;20.83;;;18.55;;
22525;SDS011;11429;50.842;4.386;2022-07-23T00:45:50;22.58;;;18.55;;
22525;SDS011;11429;50.842;4.386;2022-07-23T00:48:15;20.55;;;17.65;;
22525;SDS011;11429;50.842;4.386;2022-07-23T00:50:42;20.83;;;17.27;;
22525;SDS011;11429;50.842;4.386;2022-07-23T00:53:08;22.33;;;19.23;;
22525;SDS011;11429;50.842;4.386;2022-07-23T00:55:34;23.40;;;18.48;;
22525;SDS011;11429;50.842;4.386;2022-07-23T00:57:59;22.02;;;18.13;;
22525;SDS011;11429;50.842;4.386;2022-07-23T01:00:26;23.90;;;19.00;;
22525;SDS011;11429;50.842;4.386;2022-07-23T01:02:52;24.00;;;19.27;;
22525;SDS011;11429;50.842;4.386;2022-07-23T01:05:18;21.70;;;19.38;;
22525;SDS011;11429;50.842;4.386;2022-07-23T01:07:47;23.23;;;18.95;;
22525;SDS011;11429;50.842;4.386;2022-07-23T01:10:16;23.85;;;19.63;;
22525;SDS011;11429;50.842;4.386;2022-07-23T01:13:09;22.00;;;19.83;;
22525;SDS011;11429;50.842;4.386;2022-07-23T01:15:36;24.05;;;20.42;;
22525;SDS011;11429;50.842;4.386;2022-07-23T01:18:03;23.05;;;20.25;;
22525;SDS011;11429;50.842;4.386;2022-07-23T01:20:30;24.08;;;20.13;;
22525;SDS011;11429;50.842;4.386;2022-07-23T01:22:57;22.83;;;20.25;;
22525;SDS011;11429;50.842;4.386;2022-07-23T01:25:23;23.35;;;19.88;;
22525;SDS011;11429;50.842;4.386;2022-07-23T01:27:51;23.70;;;19.92;;
22525;SDS011;11429;50.842;4.386;2022-07-23T01:30:17;23.27;;;20.60;;
22525;SDS011;11429;50.842;4.386;2022-07-23T01:32:44;24.13;;;19.65;;
22525;SDS011;11429;50.842;4.386;2022-07-23T01:35:09;22.13;;;19.83;;
22525;SDS011;11429;50.842;4.386;2022-07-23T01:37:35;25.33;;;19.58;;
22525;SDS011;11429;50.842;4.386;2022-07-23T01:40:02;26.23;;;20.52;;
22525;SDS011;11429;50.842;4.386;2022-07-23T01:42:29;25.40;;;20.13;;
22525;SDS011;11429;50.842;4.386;2022-07-23T01:44:55;24.08;;;20.02;;
22525;SDS011;11429;50.842;4.386;2022-07-23T01:47:21;22.35;;;20.00;;
22525;SDS011;11429;50.842;4.386;2022-07-23T01:49:47;22.48;;;19.90;;
22525;SDS011;11429;50.842;4.386;2022-07-23T01:52:13;20.98;;;18.77;;
22525;SDS011;11429;50.842;4.386;2022-07-23T01:54:38;23.52;;;19.55;;
22525;SDS011;11429;50.842;4.386;2022-07-23T01:57:05;21.88;;;19.58;;
22525;SDS011;11429;50.842;4.386;2022-07-23T01:59:31;23.17;;;19.05;;
22525;SDS011;11429;50.842;4.386;2022-07-23T02:01:57;22.73;;;19.45;;
22525;SDS011;11429;50.842;4.386;2022-07-23T02:04:24;21.17;;;18.80;;
22525;SDS011;11429;50.842;4.386;2022-07-23T02:06:50;22.08;;;19.58;;
22525;SDS011;11429;50.842;4.386;2022-07-23T02:09:17;24.20;;;20.45;;
22525;SDS011;11429;50.842;4.386;2022-07-23T02:11:42;22.38;;;19.60;;
22525;SDS011;11429;50.842;4.386;2022-07-23T02:14:08;24.17;;;19.75;;
22525;SDS011;11429;50.842;4.386;2022-07-23T02:16:34;22.20;;;18.92;;
22525;SDS011;11429;50.842;4.386;2022-07-23T02:18:59;22.45;;;19.25;;
22525;SDS011;11429;50.842;4.386;2022-07-23T02:21:25;21.63;;;19.33;;
22525;SDS011;11429;50.842;4.386;2022-07-23T02:23:51;24.48;;;19.25;;
22525;SDS011;11429;50.842;4.386;2022-07-23T02:26:16;23.98;;;19.35;;
22525;SDS011;11429;50.842;4.386;2022-07-23T02:28:42;26.38;;;19.90;;
22525;SDS011;11429;50.842;4.386;2022-07-23T02:31:08;21.63;;;18.13;;
22525;SDS011;11429;50.842;4.386;2022-07-23T02:33:33;21.35;;;19.08;;
22525;SDS011;11429;50.842;4.386;2022-07-23T02:35:59;21.42;;;17.58;;
22525;SDS011;11429;50.842;4.386;2022-07-23T02:38:25;20.98;;;18.38;;
22525;SDS011;11429;50.842;4.386;2022-07-23T02:40:51;22.63;;;18.13;;
22525;SDS011;11429;50.842;4.386;2022-07-23T02:43:17;21.42;;;17.95;;
22525;SDS011;11429;50.842;4.386;2022-07-23T02:45:43;22.33;;;17.98;;
22525;SDS011;11429;50.842;4.386;2022-07-23T02:48:08;20.20;;;18.00;;
22525;SDS011;11429;50.842;4.386;2022-07-23T02:50:37;22.85;;;18.67;;
22525;SDS011;11429;50.842;4.386;2022-07-23T02:53:03;22.58;;;18.90;;
22525;SDS011;11429;50.842;4.386;2022-07-23T02:55:28;20.45;;;18.33;;
22525;SDS011;11429;50.842;4.386;2022-07-23T02:57:54;22.13;;;18.23;;
22525;SDS011;11429;50.842;4.386;2022-07-23T03:00:20;21.92;;;18.35;;
22525;SDS011;11429;50.842;4.386;2022-07-23T03:02:45;23.40;;;20.70;;
22525;SDS011;11429;50.842;4.386;2022-07-23T03:05:11;22.98;;;19.58;;
22525;SDS011;11429;50.842;4.386;2022-07-23T03:07:37;24.13;;;20.30;;
22525;SDS011;11429;50.842;4.386;2022-07-23T03:10:02;26.02;;;20.30;;
22525;SDS011;11429;50.842;4.386;2022-07-23T03:12:28;22.80;;;19.50;;
22525;SDS011;11429;50.842;4.386;2022-07-23T03:14:54;23.55;;;19.65;;
22525;SDS011;11429;50.842;4.386;2022-07-23T03:17:20;22.27;;;19.52;;
22525;SDS011;11429;50.842;4.386;2022-07-23T03:19:45;21.25;;;18.95;;
22525;SDS011;11429;50.842;4.386;2022-07-23T03:22:11;22.40;;;19.83;;
22525;SDS011;11429;50.842;4.386;2022-07-23T03:24:36;22.00;;;18.77;;
22525;SDS011;11429;50.842;4.386;2022-07-23T03:27:23;21.15;;;18.92;;
22525;SDS011;11429;50.842;4.386;2022-07-23T03:29:51;22.40;;;19.42;;
22525;SDS011;11429;50.842;4.386;2022-07-23T03:32:17;24.42;;;19.60;;
22525;SDS011;11429;50.842;4.386;2022-07-23T03:34:43;24.27;;;19.58;;
22525;SDS011;11429;50.842;4.386;2022-07-23T03:37:09;21.75;;;18.45;;
22525;SDS011;11429;50.842;4.386;2022-07-23T03:39:35;22.63;;;18.75;;
22525;SDS011;11429;50.842;4.386;2022-07-23T03:42:00;24.30;;;19.55;;
22525;SDS011;11429;50.842;4.386;2022-07-23T03:44:26;22.08;;;19.63;;
22525;SDS011;11429;50.842;4.386;2022-07-23T03:46:52;25.65;;;20.25;;
22525;SDS011;11429;50.842;4.386;2022-07-23T03:49:17;26.42;;;19.92;;
22525;SDS011;11429;50.842;4.386;2022-07-23T03:51:43;24.08;;;20.00;;
22525;SDS011;11429;50.842;4.386;2022-07-23T03:54:09;23.27;;;20.25;;
22525;SDS011;11429;50.842;4.386;2022-07-23T03:56:34;27.23;;;20.33;;
22525;SDS011;11429;50.842;4.386;2022-07-23T03:59:00;21.67;;;19.38;;
22525;SDS011;11429;50.842;4.386;2022-07-23T04:01:26;24.05;;;20.50;;
22525;SDS011;11429;50.842;4.386;2022-07-23T04:03:52;23.15;;;19.88;;
22525;SDS011;11429;50.842;4.386;2022-07-23T04:06:18;23.77;;;19.40;;
22525;SDS011;11429;50.842;4.386;2022-07-23T04:08:43;23.58;;;19.30;;
22525;SDS011;11429;50.842;4.386;2022-07-23T04:11:09;22.75;;;20.25;;
22525;SDS011;11429;50.842;4.386;2022-07-23T04:13:35;24.48;;;18.60;;
22525;SDS011;11429;50.842;4.386;2022-07-23T04:16:00;22.05;;;19.27;;
22525;SDS011;11429;50.842;4.386;2022-07-23T04:18:26;21.73;;;19.10;;
22525;SDS011;11429;50.842;4.386;2022-07-23T04:20:52;21.90;;;19.60;;
22525;SDS011;11429;50.842;4.386;2022-07-23T04:23:18;21.10;;;18.85;;
22525;SDS011;11429;50.842;4.386;2022-07-23T04:25:43;21.30;;;19.00;;
22525;SDS011;11429;50.842;4.386;2022-07-23T04:28:09;21.67;;;19.35;;
22525;SDS011;11429;50.842;4.386;2022-07-23T04:30:35;21.63;;;19.25;;
22525;SDS011;11429;50.842;4.386;2022-07-23T04:33:01;21.88;;;19.17;;
22525;SDS011;11429;50.842;4.386;2022-07-23T04:35:26;23.30;;;18.95;;
22525;SDS011;11429;50.842;4.386;2022-07-23T04:37:52;21.98;;;19.65;;
22525;SDS011;11429;50.842;4.386;2022-07-23T04:40:18;21.77;;;19.17;;
22525;SDS011;11429;50.842;4.386;2022-07-23T04:42:43;22.85;;;19.42;;
22525;SDS011;11429;50.842;4.386;2022-07-23T04:45:09;20.80;;;18.17;;
22525;SDS011;11429;50.842;4.386;2022-07-23T04:47:35;19.42;;;17.50;;
22525;SDS011;11429;50.842;4.386;2022-07-23T04:50:01;21.80;;;18.17;;
22525;SDS011;11429;50.842;4.386;2022-07-23T04:52:26;19.80;;;17.38;;
22525;SDS011;11429;50.842;4.386;2022-07-23T04:54:52;19.20;;;16.45;;
22525;SDS011;11429;50.842;4.386;2022-07-23T04:57:17;21.40;;;17.60;;
22525;SDS011;11429;50.842;4.386;2022-07-23T04:59:43;20.90;;;17.52;;
22525;SDS011;11429;50.842;4.386;2022-07-23T05:02:09;19.50;;;17.38;;
22525;SDS011;11429;50.842;4.386;2022-07-23T05:04:34;19.25;;;16.48;;
22525;SDS011;11429;50.842;4.386;2022-07-23T05:07:00;18.83;;;16.65;;
22525;SDS011;11429;50.842;4.386;2022-07-23T05:09:26;17.23;;;15.30;;
22525;SDS011;11429;50.842;4.386;2022-07-23T05:11:51;17.98;;;16.17;;
22525;SDS011;11429;50.842;4.386;2022-07-23T05:14:17;18.70;;;15.38;;
22525;SDS011;11429;50.842;4.386;2022-07-23T05:16:43;21.45;;;14.98;;
22525;SDS011;11429;50.842;4.386;2022-07-23T05:19:09;17.75;;;14.40;;
22525;SDS011;11429;50.842;4.386;2022-07-23T05:21:34;15.85;;;14.10;;
22525;SDS011;11429;50.842;4.386;2022-07-23T05:24:00;18.60;;;14.13;;
22525;SDS011;11429;50.842;4.386;2022-07-23T05:26:26;18.55;;;14.07;;
22525;SDS011;11429;50.842;4.386;2022-07-23T05:28:51;15.52;;;13.40;;
22525;SDS011;11429;50.842;4.386;2022-07-23T05:31:17;15.88;;;14.20;;
22525;SDS011;11429;50.842;4.386;2022-07-23T05:33:43;16.20;;;13.75;;
22525;SDS011;11429;50.842;4.386;2022-07-23T05:36:08;16.40;;;13.48;;
22525;SDS011;11429;50.842;4.386;2022-07-23T05:38:34;17.35;;;14.20;;
22525;SDS011;11429;50.842;4.386;2022-07-23T05:41:00;16.05;;;14.45;;
22525;SDS011;11429;50.842;4.386;2022-07-23T05:43:26;17.17;;;14.15;;
22525;SDS011;11429;50.842;4.386;2022-07-23T05:45:52;15.00;;;13.50;;
22525;SDS011;11429;50.842;4.386;2022-07-23T05:48:18;18.15;;;14.90;;
22525;SDS011;11429;50.842;4.386;2022-07-23T05:50:44;17.38;;;14.00;;
22525;SDS011;11429;50.842;4.386;2022-07-23T05:53:10;16.02;;;14.32;;
22525;SDS011;11429;50.842;4.386;2022-07-23T05:55:36;16.50;;;14.35;;
22525;SDS011;11429;50.842;4.386;2022-07-23T05:58:01;17.05;;;13.82;;
22525;SDS011;11429;50.842;4.386;2022-07-23T06:00:27;17.08;;;14.65;;
22525;SDS011;11429;50.842;4.386;2022-07-23T06:02:53;20.98;;;14.05;;
22525;SDS011;11429;50.842;4.386;2022-07-23T06:05:19;17.52;;;14.13;;
22525;SDS011;11429;50.842;4.386;2022-07-23T06:07:45;15.90;;;13.68;;
22525;SDS011;11429;50.842;4.386;2022-07-23T06:10:11;17.85;;;13.30;;
22525;SDS011;11429;50.842;4.386;2022-07-23T06:12:36;15.45;;;12.65;;
22525;SDS011;11429;50.842;4.386;2022-07-23T06:15:03;15.93;;;13.20;;
22525;SDS011;11429;50.842;4.386;2022-07-23T06:17:29;14.02;;;12.52;;
22525;SDS011;11429;50.842;4.386;2022-07-23T06:19:55;14.80;;;12.98;;
22525;SDS011;11429;50.842;4.386;2022-07-23T06:22:21;15.18;;;12.00;;
22525;SDS011;11429;50.842;4.386;2022-07-23T06:24:47;14.98;;;12.60;;
22525;SDS011;11429;50.842;4.386;2022-07-23T06:27:14;16.17;;;12.18;;
22525;SDS011;11429;50.842;4.386;2022-07-23T06:29:39;13.63;;;12.00;;
22525;SDS011;11429;50.842;4.386;2022-07-23T06:32:06;15.10;;;12.07;;
22525;SDS011;11429;50.842;4.386;2022-07-23T06:34:32;12.95;;;11.60;;
22525;SDS011;11429;50.842;4.386;2022-07-23T06:36:58;14.38;;;10.82;;
22525;SDS011;11429;50.842;4.386;2022-07-23T06:39:24;13.13;;;11.75;;
22525;SDS011;11429;50.842;4.386;2022-07-23T06:41:50;15.23;;;12.32;;
22525;SDS011;11429;50.842;4.386;2022-07-23T06:44:15;13.73;;;11.80;;
22525;SDS011;11429;50.842;4.386;2022-07-23T06:46:41;14.80;;;11.32;;
22525;SDS011;11429;50.842;4.386;2022-07-23T06:49:07;14.27;;;12.05;;
22525;SDS011;11429;50.842;4.386;2022-07-23T06:51:32;12.68;;;11.48;;
22525;SDS011;11429;50.842;4.386;2022-07-23T06:53:58;13.52;;;12.15;;
22525;SDS011;11429;50.842;4.386;2022-07-23T06:56:24;13.25;;;11.80;;
22525;SDS011;11429;50.842;4.386;2022-07-23T06:58:50;14.02;;;11.40;;
22525;SDS011;11429;50.842;4.386;2022-07-23T07:01:15;12.70;;;11.40;;
22525;SDS011;11429;50.842;4.386;2022-07-23T07:03:41;13.15;;;11.68;;
22525;SDS011;11429;50.842;4.386;2022-07-23T07:06:07;14.13;;;12.07;;
22525;SDS011;11429;50.842;4.386;2022-07-23T07:08:33;13.13;;;11.52;;
22525;SDS011;11429;50.842;4.386;2022-07-23T07:10:58;13.40;;;11.85;;
22525;SDS011;11429;50.842;4.386;2022-07-23T07:13:24;13.35;;;12.00;;
22525;SDS011;11429;50.842;4.386;2022-07-23T07:15:50;13.60;;;12.20;;
22525;SDS011;11429;50.842;4.386;2022-07-23T07:18:15;12.80;;;11.48;;
22525;SDS011;11429;50.842;4.386;2022-07-23T07:20:41;14.90;;;12.38;;
22525;SDS011;11429;50.842;4.386;2022-07-23T07:23:07;14.05;;;12.05;;
22525;SDS011;11429;50.842;4.386;2022-07-23T07:25:33;13.65;;;10.95;;
22525;SDS011;11429;50.842;4.386;2022-07-23T07:27:58;12.95;;;11.43;;
22525;SDS011;11429;50.842;4.386;2022-07-23T07:30:24;12.88;;;10.82;;
22525;SDS011;11429;50.842;4.386;2022-07-23T07:32:50;12.18;;;10.88;;
22525;SDS011;11429;50.842;4.386;2022-07-23T07:35:15;12.50;;;10.20;;
22525;SDS011;11429;50.842;4.386;2022-07-23T07:37:41;12.50;;;11.20;;
22525;SDS011;11429;50.842;4.386;2022-07-23T07:40:07;11.30;;;10.10;;
22525;SDS011;11429;50.842;4.386;2022-07-23T07:42:33;13.05;;;10.45;;
22525;SDS011;11429;50.842;4.386;2022-07-23T07:44:59;12.82;;;11.13;;
22525;SDS011;11429;50.842;4.386;2022-07-23T07:47:25;11.98;;;10.43;;
22525;SDS011;11429;50.842;4.386;2022-07-23T07:49:50;11.13;;;9.95;;
22525;SDS011;11429;50.842;4.386;2022-07-23T07:52:16;10.95;;;9.93;;
22525;SDS011;11429;50.842;4.386;2022-07-23T07:54:42;12.43;;;10.25;;
22525;SDS011;11429;50.842;4.386;2022-07-23T07:57:08;11.18;;;10.07;;
22525;SDS011;11429;50.842;4.386;2022-07-23T07:59:34;11.00;;;9.55;;
22525;SDS011;11429;50.842;4.386;2022-07-23T08:02:00;11.35;;;9.57;;
22525;SDS011;11429;50.842;4.386;2022-07-23T08:04:25;13.65;;;10.00;;
22525;SDS011;11429;50.842;4.386;2022-07-23T08:06:51;12.00;;;9.45;;
22525;SDS011;11429;50.842;4.386;2022-07-23T08:09:17;10.32;;;8.82;;
22525;SDS011;11429;50.842;4.386;2022-07-23T08:11:42;11.52;;;9.25;;
22525;SDS011;11429;50.842;4.386;2022-07-23T08:14:08;10.93;;;9.20;;
22525;SDS011;11429;50.842;4.386;2022-07-23T08:16:36;14.20;;;10.32;;
22525;SDS011;11429;50.842;4.386;2022-07-23T08:19:01;12.63;;;10.27;;
22525;SDS011;11429;50.842;4.386;2022-07-23T08:21:27;11.55;;;10.05;;
22525;SDS011;11429;50.842;4.386;2022-07-23T08:23:53;11.82;;;10.38;;
22525;SDS011;11429;50.842;4.386;2022-07-23T08:26:18;12.85;;;9.40;;
22525;SDS011;11429;50.842;4.386;2022-07-23T08:28:44;15.07;;;10.50;;
22525;SDS011;11429;50.842;4.386;2022-07-23T08:31:09;12.95;;;11.35;;
22525;SDS011;11429;50.842;4.386;2022-07-23T08:33:36;13.32;;;10.30;;
22525;SDS011;11429;50.842;4.386;2022-07-23T08:36:03;11.85;;;10.65;;
22525;SDS011;11429;50.842;4.386;2022-07-23T08:38:29;12.80;;;10.50;;
22525;SDS011;11429;50.842;4.386;2022-07-23T08:40:55;12.20;;;10.90;;
22525;SDS011;11429;50.842;4.386;2022-07-23T08:43:28;13.00;;;11.32;;
22525;SDS011;11429;50.842;4.386;2022-07-23T08:45:55;18.08;;;10.85;;
22525;SDS011;11429;50.842;4.386;2022-07-23T08:48:24;12.70;;;10.23;;
22525;SDS011;11429;50.842;4.386;2022-07-23T08:50:52;12.23;;;10.93;;
22525;SDS011;11429;50.842;4.386;2022-07-23T08:53:20;13.85;;;10.23;;
22525;SDS011;11429;50.842;4.386;2022-07-23T08:55:48;13.48;;;10.52;;
22525;SDS011;11429;50.842;4.386;2022-07-23T08:58:16;13.15;;;10.27;;
22525;SDS011;11429;50.842;4.386;2022-07-23T09:00:42;12.60;;;9.57;;
22525;SDS011;11429;50.842;4.386;2022-07-23T09:03:19;11.68;;;9.77;;
22525;SDS011;11429;50.842;4.386;2022-07-23T09:05:46;11.90;;;9.38;;
22525;SDS011;11429;50.842;4.386;2022-07-23T09:08:56;11.73;;;9.52;;
22525;SDS011;11429;50.842;4.386;2022-07-23T09:11:04;10.63;;;9.52;;
22525;SDS011;11429;50.842;4.386;2022-07-23T09:13:34;12.27;;;9.25;;
22525;SDS011;11429;50.842;4.386;2022-07-23T09:18:48;12.38;;;8.65;;
22525;SDS011;11429;50.842;4.386;2022-07-23T09:21:26;12.68;;;8.32;;
22525;SDS011;11429;50.842;4.386;2022-07-23T09:24:03;8.52;;;7.47;;
22525;SDS011;11429;50.842;4.386;2022-07-23T09:29:17;10.55;;;7.78;;
22525;SDS011;11429;50.842;4.386;2022-07-23T09:31:59;7.55;;;6.82;;
22525;SDS011;11429;50.842;4.386;2022-07-23T09:34:34;10.20;;;7.55;;
22525;SDS011;11429;50.842;4.386;2022-07-23T09:37:14;9.20;;;8.30;;
22525;SDS011;11429;50.842;4.386;2022-07-23T09:39:41;9.93;;;7.72;;
22525;SDS011;11429;50.842;4.386;2022-07-23T09:44:42;13.65;;;7.55;;
22525;SDS011;11429;50.842;4.386;2022-07-23T09:47:11;7.93;;;7.15;;
22525;SDS011;11429;50.842;4.386;2022-07-23T09:49:36;12.55;;;7.32;;
22525;SDS011;11429;50.842;4.386;2022-07-23T09:52:02;8.80;;;7.18;;
22525;SDS011;11429;50.842;4.386;2022-07-23T09:54:30;8.43;;;7.30;;
22525;SDS011;11429;50.842;4.386;2022-07-23T09:57:05;11.13;;;8.45;;
22525;SDS011;11429;50.842;4.386;2022-07-23T09:59:39;11.35;;;7.28;;
22525;SDS011;11429;50.842;4.386;2022-07-23T10:02:07;9.85;;;7.10;;
22525;SDS011;11429;50.842;4.386;2022-07-23T10:04:34;9.93;;;6.97;;
22525;SDS011;11429;50.842;4.386;2022-07-23T10:07:01;10.45;;;7.22;;
22525;SDS011;11429;50.842;4.386;2022-07-23T10:09:32;9.13;;;7.78;;
22525;SDS011;11429;50.842;4.386;2022-07-23T10:12:02;9.80;;;7.10;;
22525;SDS011;11429;50.842;4.386;2022-07-23T10:14:31;12.55;;;6.22;;
22525;SDS011;11429;50.842;4.386;2022-07-23T10:17:00;7.90;;;6.45;;
22525;SDS011;11429;50.842;4.386;2022-07-23T10:19:27;7.30;;;5.57;;
22525;SDS011;11429;50.842;4.386;2022-07-23T10:21:58;8.40;;;7.28;;
22525;SDS011;11429;50.842;4.386;2022-07-23T10:29:51;5.82;;;4.72;;
22525;SDS011;11429;50.842;4.386;2022-07-23T10:37:37;7.70;;;6.30;;
22525;SDS011;11429;50.842;4.386;2022-07-23T10:40:16;9.77;;;7.05;;
22525;SDS011;11429;50.842;4.386;2022-07-23T10:42:44;8.00;;;6.90;;
22525;SDS011;11429;50.842;4.386;2022-07-23T10:48:19;10.63;;;6.80;;
22525;SDS011;11429;50.842;4.386;2022-07-23T10:59:14;8.80;;;6.10;;
22525;SDS011;11429;50.842;4.386;2022-07-23T11:01:40;7.53;;;6.47;;
22525;SDS011;11429;50.842;4.386;2022-07-23T11:04:06;7.05;;;5.90;;
22525;SDS011;11429;50.842;4.386;2022-07-23T11:09:58;8.02;;;5.65;;
22525;SDS011;11429;50.842;4.386;2022-07-23T11:17:40;8.95;;;4.88;;
22525;SDS011;11429;50.842;4.386;2022-07-23T11:20:22;6.72;;;5.25;;
22525;SDS011;11429;50.842;4.386;2022-07-23T11:22:54;8.02;;;4.95;;
22525;SDS011;11429;50.842;4.386;2022-07-23T11:27:47;7.93;;;4.07;;
22525;SDS011;11429;50.842;4.386;2022-07-23T11:35:33;11.38;;;5.80;;
22525;SDS011;11429;50.842;4.386;2022-07-23T11:38:07;8.43;;;6.68;;
22525;SDS011;11429;50.842;4.386;2022-07-23T11:40:39;6.93;;;4.70;;
22525;SDS011;11429;50.842;4.386;2022-07-23T11:43:06;7.78;;;5.70;;
22525;SDS011;11429;50.842;4.386;2022-07-23T11:45:47;6.80;;;5.70;;
22525;SDS011;11429;50.842;4.386;2022-07-23T11:48:20;7.53;;;5.88;;
22525;SDS011;11429;50.842;4.386;2022-07-23T11:50:50;8.45;;;6.72;;
22525;SDS011;11429;50.842;4.386;2022-07-23T11:53:24;7.40;;;6.43;;
22525;SDS011;11429;50.842;4.386;2022-07-23T11:55:57;10.82;;;6.18;;
22525;SDS011;11429;50.842;4.386;2022-07-23T11:58:31;8.23;;;5.35;;
22525;SDS011;11429;50.842;4.386;2022-07-23T12:00:57;8.20;;;5.45;;
22525;SDS011;11429;50.842;4.386;2022-07-23T12:03:23;8.20;;;6.60;;
22525;SDS011;11429;50.842;4.386;2022-07-23T12:05:49;10.18;;;6.03;;
22525;SDS011;11429;50.842;4.386;2022-07-23T12:08:20;8.88;;;5.80;;
22525;SDS011;11429;50.842;4.386;2022-07-23T12:10:46;9.52;;;6.30;;
22525;SDS011;11429;50.842;4.386;2022-07-23T12:13:13;9.98;;;6.95;;
22525;SDS011;11429;50.842;4.386;2022-07-23T12:15:48;8.32;;;6.03;;
22525;SDS011;11429;50.842;4.386;2022-07-23T12:18:16;7.40;;;5.38;;
22525;SDS011;11429;50.842;4.386;2022-07-23T12:20:45;8.52;;;6.32;;
22525;SDS011;11429;50.842;4.386;2022-07-23T12:23:14;6.57;;;5.55;;
22525;SDS011;11429;50.842;4.386;2022-07-23T12:25:42;13.05;;;10.27;;
22525;SDS011;11429;50.842;4.386;2022-07-23T12:28:28;10.38;;;6.25;;
22525;SDS011;11429;50.842;4.386;2022-07-23T12:30:57;11.45;;;5.88;;
22525;SDS011;11429;50.842;4.386;2022-07-23T12:33:25;9.50;;;6.13;;
22525;SDS011;11429;50.842;4.386;2022-07-23T12:35:53;7.47;;;5.50;;
22525;SDS011;11429;50.842;4.386;2022-07-23T12:38:21;10.95;;;6.68;;
22525;SDS011;11429;50.842;4.386;2022-07-23T12:40:49;8.73;;;6.28;;
22525;SDS011;11429;50.842;4.386;2022-07-23T12:45:50;10.00;;;7.20;;
22525;SDS011;11429;50.842;4.386;2022-07-23T12:48:38;11.57;;;7.63;;
22525;SDS011;11429;50.842;4.386;2022-07-23T12:51:14;12.75;;;7.07;;
22525;SDS011;11429;50.842;4.386;2022-07-23T12:53:42;8.35;;;5.72;;
22525;SDS011;11429;50.842;4.386;2022-07-23T12:56:16;11.75;;;5.13;;
22525;SDS011;11429;50.842;4.386;2022-07-23T13:01:43;10.20;;;7.03;;
22525;SDS011;11429;50.842;4.386;2022-07-23T13:04:14;13.07;;;8.77;;
22525;SDS011;11429;50.842;4.386;2022-07-23T13:09:20;10.68;;;6.78;;
22525;SDS011;11429;50.842;4.386;2022-07-23T13:11:50;9.32;;;6.50;;
22525;SDS011;11429;50.842;4.386;2022-07-23T13:14:18;7.55;;;6.15;;
22525;SDS011;11429;50.842;4.386;2022-07-23T13:16:45;10.43;;;5.72;;
22525;SDS011;11429;50.842;4.386;2022-07-23T13:19:12;10.57;;;5.55;;
22525;SDS011;11429;50.842;4.386;2022-07-23T13:21:38;9.10;;;5.00;;
22525;SDS011;11429;50.842;4.386;2022-07-23T13:24:05;9.70;;;4.65;;
22525;SDS011;11429;50.842;4.386;2022-07-23T13:26:31;9.57;;;5.05;;
22525;SDS011;11429;50.842;4.386;2022-07-23T13:28:56;6.00;;;4.63;;
22525;SDS011;11429;50.842;4.386;2022-07-23T13:31:23;9.23;;;5.18;;
22525;SDS011;11429;50.842;4.386;2022-07-23T13:33:48;8.43;;;4.97;;
22525;SDS011;11429;50.842;4.386;2022-07-23T13:36:14;10.20;;;5.20;;
22525;SDS011;11429;50.842;4.386;2022-07-23T13:38:40;8.73;;;5.10;;
22525;SDS011;11429;50.842;4.386;2022-07-23T13:41:06;9.15;;;4.20;;
22525;SDS011;11429;50.842;4.386;2022-07-23T13:43:32;11.35;;;4.20;;
22525;SDS011;11429;50.842;4.386;2022-07-23T13:45:58;8.38;;;4.07;;
22525;SDS011;11429;50.842;4.386;2022-07-23T13:48:24;8.88;;;4.47;;
22525;SDS011;11429;50.842;4.386;2022-07-23T13:50:50;7.38;;;4.80;;
22525;SDS011;11429;50.842;4.386;2022-07-23T13:53:17;9.35;;;4.07;;
22525;SDS011;11429;50.842;4.386;2022-07-23T13:55:45;11.85;;;5.18;;
22525;SDS011;11429;50.842;4.386;2022-07-23T13:58:13;9.00;;;4.40;;
22525;SDS011;11429;50.842;4.386;2022-07-23T14:00:40;13.55;;;4.68;;
22525;SDS011;11429;50.842;4.386;2022-07-23T14:03:07;14.13;;;4.65;;
22525;SDS011;11429;50.842;4.386;2022-07-23T14:05:33;11.30;;;4.75;;
22525;SDS011;11429;50.842;4.386;2022-07-23T14:07:59;8.13;;;4.70;;
22525;SDS011;11429;50.842;4.386;2022-07-23T14:10:25;7.22;;;4.95;;
22525;SDS011;11429;50.842;4.386;2022-07-23T14:12:51;6.47;;;4.60;;
22525;SDS011;11429;50.842;4.386;2022-07-23T14:15:22;9.23;;;5.07;;
22525;SDS011;11429;50.842;4.386;2022-07-23T14:17:49;7.78;;;4.38;;
22525;SDS011;11429;50.842;4.386;2022-07-23T14:20:15;9.77;;;4.32;;
22525;SDS011;11429;50.842;4.386;2022-07-23T14:22:41;6.90;;;4.10;;
22525;SDS011;11429;50.842;4.386;2022-07-23T14:25:08;10.05;;;5.20;;
22525;SDS011;11429;50.842;4.386;2022-07-23T14:27:34;5.60;;;4.38;;
22525;SDS011;11429;50.842;4.386;2022-07-23T14:30:02;5.82;;;4.85;;
22525;SDS011;11429;50.842;4.386;2022-07-23T14:32:29;8.48;;;4.82;;
22525;SDS011;11429;50.842;4.386;2022-07-23T14:34:55;8.73;;;4.68;;
22525;SDS011;11429;50.842;4.386;2022-07-23T14:37:20;5.72;;;4.25;;
22525;SDS011;11429;50.842;4.386;2022-07-23T14:39:46;6.00;;;4.25;;
22525;SDS011;11429;50.842;4.386;2022-07-23T14:42:12;8.38;;;4.60;;
22525;SDS011;11429;50.842;4.386;2022-07-23T14:44:39;6.45;;;4.47;;
22525;SDS011;11429;50.842;4.386;2022-07-23T14:47:07;5.32;;;4.20;;
22525;SDS011;11429;50.842;4.386;2022-07-23T14:49:33;5.15;;;4.05;;
22525;SDS011;11429;50.842;4.386;2022-07-23T14:51:59;7.72;;;4.53;;
22525;SDS011;11429;50.842;4.386;2022-07-23T14:54:26;15.45;;;4.80;;
22525;SDS011;11429;50.842;4.386;2022-07-23T14:56:53;6.65;;;4.57;;
22525;SDS011;11429;50.842;4.386;2022-07-23T14:59:19;6.57;;;4.95;;
22525;SDS011;11429;50.842;4.386;2022-07-23T15:01:45;17.20;;;4.85;;
22525;SDS011;11429;50.842;4.386;2022-07-23T15:04:11;9.45;;;5.13;;
22525;SDS011;11429;50.842;4.386;2022-07-23T15:06:37;9.57;;;4.40;;
22525;SDS011;11429;50.842;4.386;2022-07-23T15:09:04;8.60;;;4.93;;
22525;SDS011;11429;50.842;4.386;2022-07-23T15:11:30;8.20;;;4.85;;
22525;SDS011;11429;50.842;4.386;2022-07-23T15:13:59;13.18;;;4.90;;
22525;SDS011;11429;50.842;4.386;2022-07-23T15:16:25;13.82;;;4.75;;
22525;SDS011;11429;50.842;4.386;2022-07-23T15:18:51;7.65;;;4.43;;
22525;SDS011;11429;50.842;4.386;2022-07-23T15:21:17;10.60;;;4.88;;
22525;SDS011;11429;50.842;4.386;2022-07-23T15:23:43;6.47;;;4.30;;
22525;SDS011;11429;50.842;4.386;2022-07-23T15:26:09;9.80;;;5.35;;